Terminal Aerodrome Forecast
Issued by NWS Cleveland, OH

Home | Current Version | Previous Version | Graphics & Text | Print | Product List | Glossary On
Versions: 1 2 3 4 5 6 7 8 9 10 11 12 13 14 15 16 17 18 19 20 21 22 23 24 25 26 27 28 29
000
FTUS41 KCLE 301900 AAB
TAFCLE
TAF AMD
KCLE 301941Z 3020/0124 33008KT P6SM SCT015 OVC030
      TEMPO 3022/0102 3SM -SHRA BR BKN015
     FM010600 02004KT 2SM BR BKN003
     FM010900 08002KT 3/4SM BR VV003
     FM011500 07004KT P6SM OVC010
     FM011800 04006KT P6SM BKN020=

USA.gov is the U.S. government's official web portal to all federal, state and local government web resources and services.